sensor_id;sensor_type;location;lat;lon;timestamp;P1;durP1;ratioP1;P2;durP2;ratioP2
79687;SDS011;69155;49.464;2.108;2023-11-21T00:02:14;7.15;;;3.33;;
79687;SDS011;69155;49.464;2.108;2023-11-21T00:04:40;8.33;;;3.50;;
79687;SDS011;69155;49.464;2.108;2023-11-21T00:07:05;9.33;;;3.00;;
79687;SDS011;69155;49.464;2.108;2023-11-21T00:09:31;7.60;;;3.35;;
79687;SDS011;69155;49.464;2.108;2023-11-21T00:11:56;5.63;;;3.05;;
79687;SDS011;69155;49.464;2.108;2023-11-21T00:14:21;7.57;;;2.60;;
79687;SDS011;69155;49.464;2.108;2023-11-21T00:16:46;7.97;;;2.90;;
79687;SDS011;69155;49.464;2.108;2023-11-21T00:19:12;6.83;;;2.97;;
79687;SDS011;69155;49.464;2.108;2023-11-21T00:21:37;6.70;;;2.67;;
79687;SDS011;69155;49.464;2.108;2023-11-21T00:24:02;9.10;;;2.67;;
79687;SDS011;69155;49.464;2.108;2023-11-21T00:26:28;6.28;;;2.97;;
79687;SDS011;69155;49.464;2.108;2023-11-21T00:28:53;6.43;;;2.70;;
79687;SDS011;69155;49.464;2.108;2023-11-21T00:31:18;6.27;;;2.70;;
79687;SDS011;69155;49.464;2.108;2023-11-21T00:33:44;8.00;;;3.50;;
79687;SDS011;69155;49.464;2.108;2023-11-21T00:36:09;7.73;;;2.80;;
79687;SDS011;69155;49.464;2.108;2023-11-21T00:38:37;11.70;;;3.30;;
79687;SDS011;69155;49.464;2.108;2023-11-21T00:41:04;7.82;;;3.85;;
79687;SDS011;69155;49.464;2.108;2023-11-21T00:43:30;15.67;;;3.77;;
79687;SDS011;69155;49.464;2.108;2023-11-21T00:45:55;8.93;;;3.57;;
79687;SDS011;69155;49.464;2.108;2023-11-21T00:48:21;6.60;;;3.25;;
79687;SDS011;69155;49.464;2.108;2023-11-21T00:50:46;8.70;;;3.10;;
79687;SDS011;69155;49.464;2.108;2023-11-21T00:53:11;9.60;;;3.43;;
79687;SDS011;69155;49.464;2.108;2023-11-21T00:55:37;5.13;;;3.10;;
79687;SDS011;69155;49.464;2.108;2023-11-21T00:58:04;7.90;;;3.55;;
79687;SDS011;69155;49.464;2.108;2023-11-21T01:00:30;8.05;;;3.60;;
79687;SDS011;69155;49.464;2.108;2023-11-21T01:02:55;7.17;;;3.07;;
79687;SDS011;69155;49.464;2.108;2023-11-21T01:05:21;8.90;;;3.47;;
79687;SDS011;69155;49.464;2.108;2023-11-21T01:07:46;6.07;;;2.97;;
79687;SDS011;69155;49.464;2.108;2023-11-21T01:10:11;5.90;;;3.30;;
79687;SDS011;69155;49.464;2.108;2023-11-21T01:12:42;4.45;;;2.88;;
79687;SDS011;69155;49.464;2.108;2023-11-21T01:15:07;6.60;;;2.70;;
79687;SDS011;69155;49.464;2.108;2023-11-21T01:17:33;8.55;;;3.30;;
79687;SDS011;69155;49.464;2.108;2023-11-21T01:19:59;9.68;;;3.55;;
79687;SDS011;69155;49.464;2.108;2023-11-21T01:22:24;12.07;;;3.22;;
79687;SDS011;69155;49.464;2.108;2023-11-21T01:24:51;4.90;;;3.00;;
79687;SDS011;69155;49.464;2.108;2023-11-21T01:27:16;9.18;;;3.42;;
79687;SDS011;69155;49.464;2.108;2023-11-21T01:29:42;8.27;;;3.53;;
79687;SDS011;69155;49.464;2.108;2023-11-21T01:32:07;12.63;;;3.97;;
79687;SDS011;69155;49.464;2.108;2023-11-21T01:34:33;7.50;;;3.50;;
79687;SDS011;69155;49.464;2.108;2023-11-21T01:37:00;9.43;;;3.87;;
79687;SDS011;69155;49.464;2.108;2023-11-21T01:39:26;11.48;;;3.47;;
79687;SDS011;69155;49.464;2.108;2023-11-21T01:41:51;9.03;;;3.20;;
79687;SDS011;69155;49.464;2.108;2023-11-21T01:44:17;7.50;;;3.67;;
79687;SDS011;69155;49.464;2.108;2023-11-21T01:46:44;6.40;;;3.10;;
79687;SDS011;69155;49.464;2.108;2023-11-21T01:49:09;8.00;;;3.03;;
79687;SDS011;69155;49.464;2.108;2023-11-21T01:51:38;6.05;;;3.13;;
79687;SDS011;69155;49.464;2.108;2023-11-21T01:54:03;8.10;;;3.25;;
79687;SDS011;69155;49.464;2.108;2023-11-21T01:56:31;6.82;;;3.15;;
79687;SDS011;69155;49.464;2.108;2023-11-21T01:58:59;6.80;;;3.33;;
79687;SDS011;69155;49.464;2.108;2023-11-21T02:01:25;9.05;;;3.72;;
79687;SDS011;69155;49.464;2.108;2023-11-21T02:03:51;7.50;;;3.40;;
79687;SDS011;69155;49.464;2.108;2023-11-21T02:06:16;7.65;;;3.35;;
79687;SDS011;69155;49.464;2.108;2023-11-21T02:08:42;8.00;;;3.30;;
79687;SDS011;69155;49.464;2.108;2023-11-21T02:11:09;11.35;;;3.67;;
79687;SDS011;69155;49.464;2.108;2023-11-21T02:13:35;12.48;;;2.90;;
79687;SDS011;69155;49.464;2.108;2023-11-21T02:16:01;4.20;;;2.77;;
79687;SDS011;69155;49.464;2.108;2023-11-21T02:18:26;10.35;;;3.13;;
79687;SDS011;69155;49.464;2.108;2023-11-21T02:20:54;7.13;;;3.33;;
79687;SDS011;69155;49.464;2.108;2023-11-21T02:23:19;8.57;;;3.22;;
79687;SDS011;69155;49.464;2.108;2023-11-21T02:25:45;10.87;;;3.10;;
79687;SDS011;69155;49.464;2.108;2023-11-21T02:28:10;9.77;;;3.57;;
79687;SDS011;69155;49.464;2.108;2023-11-21T02:30:37;8.65;;;3.28;;
79687;SDS011;69155;49.464;2.108;2023-11-21T02:33:03;9.90;;;3.43;;
79687;SDS011;69155;49.464;2.108;2023-11-21T02:35:31;5.15;;;3.13;;
79687;SDS011;69155;49.464;2.108;2023-11-21T02:37:56;10.90;;;3.80;;
79687;SDS011;69155;49.464;2.108;2023-11-21T02:40:21;6.83;;;3.27;;
79687;SDS011;69155;49.464;2.108;2023-11-21T02:42:47;9.23;;;3.23;;
79687;SDS011;69155;49.464;2.108;2023-11-21T02:45:15;5.07;;;3.25;;
79687;SDS011;69155;49.464;2.108;2023-11-21T02:47:45;5.50;;;3.55;;
79687;SDS011;69155;49.464;2.108;2023-11-21T02:50:11;6.57;;;3.50;;
79687;SDS011;69155;49.464;2.108;2023-11-21T02:52:38;9.07;;;3.30;;
79687;SDS011;69155;49.464;2.108;2023-11-21T02:55:05;5.80;;;3.60;;
79687;SDS011;69155;49.464;2.108;2023-11-21T02:57:30;7.20;;;3.20;;
79687;SDS011;69155;49.464;2.108;2023-11-21T02:59:58;13.05;;;3.50;;
79687;SDS011;69155;49.464;2.108;2023-11-21T03:02:24;6.55;;;3.10;;
79687;SDS011;69155;49.464;2.108;2023-11-21T03:04:50;11.35;;;3.28;;
79687;SDS011;69155;49.464;2.108;2023-11-21T03:07:15;6.20;;;3.60;;
79687;SDS011;69155;49.464;2.108;2023-11-21T03:09:41;9.00;;;3.45;;
79687;SDS011;69155;49.464;2.108;2023-11-21T03:12:06;6.00;;;2.83;;
79687;SDS011;69155;49.464;2.108;2023-11-21T03:14:31;5.03;;;2.77;;
79687;SDS011;69155;49.464;2.108;2023-11-21T03:16:57;5.30;;;2.70;;
79687;SDS011;69155;49.464;2.108;2023-11-21T03:19:22;8.57;;;3.30;;
79687;SDS011;69155;49.464;2.108;2023-11-21T03:21:47;7.77;;;3.33;;
79687;SDS011;69155;49.464;2.108;2023-11-21T03:24:12;8.53;;;3.13;;
79687;SDS011;69155;49.464;2.108;2023-11-21T03:26:40;5.60;;;3.10;;
79687;SDS011;69155;49.464;2.108;2023-11-21T03:29:05;5.00;;;3.13;;
79687;SDS011;69155;49.464;2.108;2023-11-21T03:31:31;7.47;;;3.10;;
79687;SDS011;69155;49.464;2.108;2023-11-21T03:33:56;7.75;;;3.35;;
79687;SDS011;69155;49.464;2.108;2023-11-21T03:36:21;6.43;;;3.43;;
79687;SDS011;69155;49.464;2.108;2023-11-21T03:38:47;8.93;;;3.10;;
79687;SDS011;69155;49.464;2.108;2023-11-21T03:41:13;7.43;;;3.50;;
79687;SDS011;69155;49.464;2.108;2023-11-21T03:43:39;6.63;;;3.20;;
79687;SDS011;69155;49.464;2.108;2023-11-21T03:46:05;5.00;;;3.03;;
79687;SDS011;69155;49.464;2.108;2023-11-21T03:48:30;10.43;;;2.97;;
79687;SDS011;69155;49.464;2.108;2023-11-21T03:50:55;7.23;;;3.53;;
79687;SDS011;69155;49.464;2.108;2023-11-21T03:53:20;7.93;;;3.37;;
79687;SDS011;69155;49.464;2.108;2023-11-21T03:55:46;8.03;;;3.40;;
79687;SDS011;69155;49.464;2.108;2023-11-21T03:58:11;7.37;;;3.73;;
79687;SDS011;69155;49.464;2.108;2023-11-21T04:00:36;8.93;;;4.87;;
79687;SDS011;69155;49.464;2.108;2023-11-21T04:03:01;9.47;;;3.67;;
79687;SDS011;69155;49.464;2.108;2023-11-21T04:05:27;9.63;;;4.50;;
79687;SDS011;69155;49.464;2.108;2023-11-21T04:07:52;8.73;;;4.07;;
79687;SDS011;69155;49.464;2.108;2023-11-21T04:10:18;9.40;;;4.07;;
79687;SDS011;69155;49.464;2.108;2023-11-21T04:12:43;10.40;;;4.00;;
79687;SDS011;69155;49.464;2.108;2023-11-21T04:15:09;5.53;;;3.28;;
79687;SDS011;69155;49.464;2.108;2023-11-21T04:17:34;7.65;;;3.83;;
79687;SDS011;69155;49.464;2.108;2023-11-21T04:20:00;6.72;;;3.38;;
79687;SDS011;69155;49.464;2.108;2023-11-21T04:22:25;9.73;;;3.93;;
79687;SDS011;69155;49.464;2.108;2023-11-21T04:24:50;7.17;;;3.90;;
79687;SDS011;69155;49.464;2.108;2023-11-21T04:27:16;8.03;;;3.87;;
79687;SDS011;69155;49.464;2.108;2023-11-21T04:29:43;6.05;;;3.70;;
79687;SDS011;69155;49.464;2.108;2023-11-21T04:32:08;10.73;;;3.78;;
79687;SDS011;69155;49.464;2.108;2023-11-21T04:34:33;6.13;;;3.47;;
79687;SDS011;69155;49.464;2.108;2023-11-21T04:36:59;5.85;;;3.30;;
79687;SDS011;69155;49.464;2.108;2023-11-21T04:39:25;8.73;;;3.60;;
79687;SDS011;69155;49.464;2.108;2023-11-21T04:41:50;5.57;;;3.40;;
79687;SDS011;69155;49.464;2.108;2023-11-21T04:44:15;5.87;;;3.33;;
79687;SDS011;69155;49.464;2.108;2023-11-21T04:46:42;7.65;;;3.40;;
79687;SDS011;69155;49.464;2.108;2023-11-21T04:49:07;6.53;;;3.30;;
79687;SDS011;69155;49.464;2.108;2023-11-21T04:51:32;6.40;;;3.67;;
79687;SDS011;69155;49.464;2.108;2023-11-21T04:53:57;6.20;;;3.57;;
79687;SDS011;69155;49.464;2.108;2023-11-21T04:56:23;6.70;;;3.57;;
79687;SDS011;69155;49.464;2.108;2023-11-21T04:58:48;6.00;;;4.07;;
79687;SDS011;69155;49.464;2.108;2023-11-21T05:01:13;8.10;;;3.80;;
79687;SDS011;69155;49.464;2.108;2023-11-21T05:03:38;7.93;;;3.83;;
79687;SDS011;69155;49.464;2.108;2023-11-21T05:06:04;6.50;;;3.75;;
79687;SDS011;69155;49.464;2.108;2023-11-21T05:08:30;9.90;;;4.00;;
79687;SDS011;69155;49.464;2.108;2023-11-21T05:10:55;6.50;;;4.00;;
79687;SDS011;69155;49.464;2.108;2023-11-21T05:13:20;5.90;;;3.67;;
79687;SDS011;69155;49.464;2.108;2023-11-21T05:15:45;5.90;;;3.83;;
79687;SDS011;69155;49.464;2.108;2023-11-21T05:18:11;6.10;;;3.67;;
79687;SDS011;69155;49.464;2.108;2023-11-21T05:20:36;9.95;;;4.15;;
79687;SDS011;69155;49.464;2.108;2023-11-21T05:23:03;6.55;;;3.50;;
79687;SDS011;69155;49.464;2.108;2023-11-21T05:25:28;5.97;;;3.60;;
79687;SDS011;69155;49.464;2.108;2023-11-21T05:27:53;14.33;;;3.57;;
79687;SDS011;69155;49.464;2.108;2023-11-21T05:30:20;5.28;;;3.60;;
79687;SDS011;69155;49.464;2.108;2023-11-21T05:32:46;6.18;;;3.55;;
79687;SDS011;69155;49.464;2.108;2023-11-21T05:35:14;8.65;;;4.97;;
79687;SDS011;69155;49.464;2.108;2023-11-21T05:37:43;7.45;;;4.40;;
79687;SDS011;69155;49.464;2.108;2023-11-21T05:40:08;5.75;;;3.80;;
79687;SDS011;69155;49.464;2.108;2023-11-21T05:42:34;5.28;;;3.65;;
79687;SDS011;69155;49.464;2.108;2023-11-21T05:44:59;11.25;;;4.07;;
79687;SDS011;69155;49.464;2.108;2023-11-21T05:47:34;6.95;;;3.78;;
79687;SDS011;69155;49.464;2.108;2023-11-21T05:50:00;5.40;;;3.88;;
79687;SDS011;69155;49.464;2.108;2023-11-21T05:52:26;6.60;;;4.03;;
79687;SDS011;69155;49.464;2.108;2023-11-21T05:54:51;6.32;;;3.47;;
79687;SDS011;69155;49.464;2.108;2023-11-21T05:57:16;4.53;;;3.43;;
79687;SDS011;69155;49.464;2.108;2023-11-21T05:59:42;4.37;;;3.30;;
79687;SDS011;69155;49.464;2.108;2023-11-21T06:02:07;7.90;;;3.90;;
79687;SDS011;69155;49.464;2.108;2023-11-21T06:04:32;7.15;;;3.85;;
79687;SDS011;69155;49.464;2.108;2023-11-21T06:07:00;4.70;;;3.23;;
79687;SDS011;69155;49.464;2.108;2023-11-21T06:09:26;5.22;;;3.50;;
79687;SDS011;69155;49.464;2.108;2023-11-21T06:11:53;5.80;;;3.63;;
79687;SDS011;69155;49.464;2.108;2023-11-21T06:14:19;6.60;;;3.77;;
79687;SDS011;69155;49.464;2.108;2023-11-21T06:16:44;10.90;;;3.93;;
79687;SDS011;69155;49.464;2.108;2023-11-21T06:19:12;6.47;;;3.83;;
79687;SDS011;69155;49.464;2.108;2023-11-21T06:24:31;9.65;;;6.35;;
79687;SDS011;69155;49.464;2.108;2023-11-21T06:26:57;14.40;;;8.32;;
79687;SDS011;69155;49.464;2.108;2023-11-21T06:29:27;14.50;;;7.53;;
79687;SDS011;69155;49.464;2.108;2023-11-21T06:32:13;9.45;;;6.38;;
79687;SDS011;69155;49.464;2.108;2023-11-21T06:34:43;9.57;;;6.30;;
79687;SDS011;69155;49.464;2.108;2023-11-21T06:37:26;9.30;;;6.40;;
79687;SDS011;69155;49.464;2.108;2023-11-21T06:39:51;9.98;;;6.65;;
79687;SDS011;69155;49.464;2.108;2023-11-21T06:42:17;7.85;;;5.15;;
79687;SDS011;69155;49.464;2.108;2023-11-21T06:44:44;10.27;;;5.22;;
79687;SDS011;69155;49.464;2.108;2023-11-21T06:47:09;9.97;;;6.00;;
79687;SDS011;69155;49.464;2.108;2023-11-21T06:49:34;8.03;;;5.10;;
79687;SDS011;69155;49.464;2.108;2023-11-21T06:52:00;9.10;;;5.77;;
79687;SDS011;69155;49.464;2.108;2023-11-21T06:54:27;10.57;;;5.72;;
79687;SDS011;69155;49.464;2.108;2023-11-21T06:56:53;9.07;;;5.77;;
79687;SDS011;69155;49.464;2.108;2023-11-21T06:59:18;10.10;;;6.35;;
79687;SDS011;69155;49.464;2.108;2023-11-21T07:01:43;12.63;;;7.27;;
79687;SDS011;69155;49.464;2.108;2023-11-21T07:04:09;11.18;;;6.63;;
79687;SDS011;69155;49.464;2.108;2023-11-21T07:06:35;8.93;;;5.75;;
79687;SDS011;69155;49.464;2.108;2023-11-21T07:09:00;11.70;;;6.38;;
79687;SDS011;69155;49.464;2.108;2023-11-21T07:11:26;9.88;;;5.53;;
79687;SDS011;69155;49.464;2.108;2023-11-21T07:13:52;8.30;;;4.65;;
79687;SDS011;69155;49.464;2.108;2023-11-21T07:16:18;9.13;;;5.00;;
79687;SDS011;69155;49.464;2.108;2023-11-21T07:18:43;7.95;;;4.80;;
79687;SDS011;69155;49.464;2.108;2023-11-21T07:21:12;7.40;;;4.27;;
79687;SDS011;69155;49.464;2.108;2023-11-21T07:23:37;8.48;;;4.03;;
79687;SDS011;69155;49.464;2.108;2023-11-21T07:26:03;6.05;;;3.95;;
79687;SDS011;69155;49.464;2.108;2023-11-21T07:28:31;6.55;;;3.75;;
79687;SDS011;69155;49.464;2.108;2023-11-21T07:30:56;5.68;;;4.03;;
79687;SDS011;69155;49.464;2.108;2023-11-21T07:33:22;6.77;;;4.40;;
79687;SDS011;69155;49.464;2.108;2023-11-21T07:35:47;11.05;;;4.43;;
79687;SDS011;69155;49.464;2.108;2023-11-21T07:38:13;6.40;;;4.40;;
79687;SDS011;69155;49.464;2.108;2023-11-21T07:40:38;7.30;;;4.17;;
79687;SDS011;69155;49.464;2.108;2023-11-21T07:43:06;7.05;;;3.95;;
79687;SDS011;69155;49.464;2.108;2023-11-21T07:45:31;7.83;;;4.27;;
79687;SDS011;69155;49.464;2.108;2023-11-21T07:47:59;7.43;;;3.85;;
79687;SDS011;69155;49.464;2.108;2023-11-21T07:50:25;7.07;;;3.72;;
79687;SDS011;69155;49.464;2.108;2023-11-21T07:52:51;7.10;;;4.10;;
79687;SDS011;69155;49.464;2.108;2023-11-21T07:55:17;5.20;;;3.70;;
79687;SDS011;69155;49.464;2.108;2023-11-21T07:57:42;5.83;;;4.03;;
79687;SDS011;69155;49.464;2.108;2023-11-21T08:00:07;6.40;;;3.70;;
79687;SDS011;69155;49.464;2.108;2023-11-21T08:02:37;6.72;;;3.08;;
79687;SDS011;69155;49.464;2.108;2023-11-21T08:05:02;5.93;;;3.97;;
79687;SDS011;69155;49.464;2.108;2023-11-21T08:07:27;7.78;;;3.10;;
79687;SDS011;69155;49.464;2.108;2023-11-21T08:09:53;4.85;;;2.83;;
79687;SDS011;69155;49.464;2.108;2023-11-21T08:12:18;5.53;;;2.80;;
79687;SDS011;69155;49.464;2.108;2023-11-21T08:14:45;6.10;;;2.83;;
79687;SDS011;69155;49.464;2.108;2023-11-21T08:17:10;6.45;;;2.42;;
79687;SDS011;69155;49.464;2.108;2023-11-21T08:19:38;9.25;;;2.78;;
79687;SDS011;69155;49.464;2.108;2023-11-21T08:22:03;3.80;;;2.33;;
79687;SDS011;69155;49.464;2.108;2023-11-21T08:24:34;2.42;;;1.92;;
79687;SDS011;69155;49.464;2.108;2023-11-21T08:26:59;5.13;;;1.90;;
79687;SDS011;69155;49.464;2.108;2023-11-21T08:29:25;3.37;;;2.10;;
79687;SDS011;69155;49.464;2.108;2023-11-21T08:31:50;3.83;;;2.20;;
79687;SDS011;69155;49.464;2.108;2023-11-21T08:34:15;3.67;;;2.10;;
79687;SDS011;69155;49.464;2.108;2023-11-21T08:36:43;3.90;;;2.20;;
79687;SDS011;69155;49.464;2.108;2023-11-21T08:39:09;4.75;;;2.50;;
79687;SDS011;69155;49.464;2.108;2023-11-21T08:41:42;5.40;;;2.42;;
79687;SDS011;69155;49.464;2.108;2023-11-21T08:44:07;3.25;;;2.05;;
79687;SDS011;69155;49.464;2.108;2023-11-21T08:46:33;4.97;;;1.97;;
79687;SDS011;69155;49.464;2.108;2023-11-21T08:49:00;3.10;;;1.55;;
79687;SDS011;69155;49.464;2.108;2023-11-21T08:51:25;1.80;;;1.58;;
79687;SDS011;69155;49.464;2.108;2023-11-21T08:53:51;3.53;;;1.90;;
79687;SDS011;69155;49.464;2.108;2023-11-21T08:56:16;5.65;;;1.70;;
79687;SDS011;69155;49.464;2.108;2023-11-21T08:58:43;4.15;;;1.67;;
79687;SDS011;69155;49.464;2.108;2023-11-21T09:01:08;3.57;;;1.63;;
79687;SDS011;69155;49.464;2.108;2023-11-21T09:03:34;4.90;;;1.60;;
79687;SDS011;69155;49.464;2.108;2023-11-21T09:06:00;2.65;;;1.77;;
79687;SDS011;69155;49.464;2.108;2023-11-21T09:08:25;3.80;;;1.75;;
79687;SDS011;69155;49.464;2.108;2023-11-21T09:10:53;2.57;;;1.77;;
79687;SDS011;69155;49.464;2.108;2023-11-21T09:13:18;3.60;;;1.83;;
79687;SDS011;69155;49.464;2.108;2023-11-21T09:15:44;2.70;;;1.80;;
79687;SDS011;69155;49.464;2.108;2023-11-21T09:18:12;5.13;;;2.25;;
79687;SDS011;69155;49.464;2.108;2023-11-21T09:20:41;4.35;;;2.42;;
79687;SDS011;69155;49.464;2.108;2023-11-21T09:23:09;2.90;;;2.15;;
79687;SDS011;69155;49.464;2.108;2023-11-21T09:25:34;2.77;;;1.73;;
79687;SDS011;69155;49.464;2.108;2023-11-21T09:27:59;4.33;;;1.80;;
79687;SDS011;69155;49.464;2.108;2023-11-21T09:30:24;3.07;;;2.17;;
79687;SDS011;69155;49.464;2.108;2023-11-21T09:32:52;3.93;;;1.97;;
79687;SDS011;69155;49.464;2.108;2023-11-21T09:35:17;2.47;;;1.80;;
79687;SDS011;69155;49.464;2.108;2023-11-21T09:37:43;1.75;;;1.42;;
79687;SDS011;69155;49.464;2.108;2023-11-21T09:40:10;3.78;;;1.70;;
79687;SDS011;69155;49.464;2.108;2023-11-21T09:42:39;3.47;;;1.50;;
79687;SDS011;69155;49.464;2.108;2023-11-21T09:45:15;1.77;;;1.20;;
79687;SDS011;69155;49.464;2.108;2023-11-21T09:47:43;1.50;;;1.30;;
79687;SDS011;69155;49.464;2.108;2023-11-21T09:50:08;2.03;;;1.42;;
79687;SDS011;69155;49.464;2.108;2023-11-21T09:52:39;3.28;;;1.40;;
79687;SDS011;69155;49.464;2.108;2023-11-21T09:55:09;4.43;;;1.52;;
79687;SDS011;69155;49.464;2.108;2023-11-21T09:57:38;2.85;;;1.23;;
79687;SDS011;69155;49.464;2.108;2023-11-21T10:00:03;3.70;;;1.57;;
79687;SDS011;69155;49.464;2.108;2023-11-21T10:02:30;2.85;;;1.35;;
79687;SDS011;69155;49.464;2.108;2023-11-21T10:04:59;2.92;;;1.80;;
79687;SDS011;69155;49.464;2.108;2023-11-21T10:07:25;2.15;;;1.45;;
79687;SDS011;69155;49.464;2.108;2023-11-21T10:09:51;1.58;;;1.30;;
79687;SDS011;69155;49.464;2.108;2023-11-21T10:12:18;2.45;;;1.20;;
79687;SDS011;69155;49.464;2.108;2023-11-21T10:14:45;1.50;;;1.40;;
79687;SDS011;69155;49.464;2.108;2023-11-21T10:17:13;2.88;;;1.20;;
79687;SDS011;69155;49.464;2.108;2023-11-21T10:19:41;1.70;;;1.23;;
79687;SDS011;69155;49.464;2.108;2023-11-21T10:22:06;2.20;;;1.50;;
79687;SDS011;69155;49.464;2.108;2023-11-21T10:24:32;4.28;;;2.10;;
79687;SDS011;69155;49.464;2.108;2023-11-21T10:26:58;2.05;;;1.50;;
79687;SDS011;69155;49.464;2.108;2023-11-21T10:29:23;4.43;;;1.90;;
79687;SDS011;69155;49.464;2.108;2023-11-21T10:31:49;3.30;;;1.73;;
79687;SDS011;69155;49.464;2.108;2023-11-21T10:34:15;7.07;;;2.03;;
79687;SDS011;69155;49.464;2.108;2023-11-21T10:36:41;6.22;;;1.85;;
79687;SDS011;69155;49.464;2.108;2023-11-21T10:39:06;2.85;;;1.60;;
79687;SDS011;69155;49.464;2.108;2023-11-21T10:41:31;4.53;;;2.03;;
79687;SDS011;69155;49.464;2.108;2023-11-21T10:43:57;5.15;;;2.15;;
79687;SDS011;69155;49.464;2.108;2023-11-21T10:46:22;4.07;;;2.00;;
79687;SDS011;69155;49.464;2.108;2023-11-21T10:48:54;2.97;;;1.90;;
79687;SDS011;69155;49.464;2.108;2023-11-21T10:51:21;5.05;;;2.33;;
79687;SDS011;69155;49.464;2.108;2023-11-21T10:53:46;3.72;;;2.20;;
79687;SDS011;69155;49.464;2.108;2023-11-21T10:56:13;4.32;;;2.10;;
79687;SDS011;69155;49.464;2.108;2023-11-21T10:58:42;6.25;;;1.90;;
79687;SDS011;69155;49.464;2.108;2023-11-21T11:01:11;2.20;;;1.60;;
79687;SDS011;69155;49.464;2.108;2023-11-21T11:03:46;3.70;;;1.52;;
79687;SDS011;69155;49.464;2.108;2023-11-21T11:06:11;4.68;;;1.90;;
79687;SDS011;69155;49.464;2.108;2023-11-21T11:08:37;5.25;;;1.90;;
79687;SDS011;69155;49.464;2.108;2023-11-21T11:11:06;2.15;;;1.75;;
79687;SDS011;69155;49.464;2.108;2023-11-21T11:13:32;2.08;;;1.63;;
79687;SDS011;69155;49.464;2.108;2023-11-21T11:15:58;2.03;;;1.55;;
79687;SDS011;69155;49.464;2.108;2023-11-21T11:18:32;1.90;;;1.60;;
79687;SDS011;69155;49.464;2.108;2023-11-21T11:26:34;2.10;;;1.50;;
79687;SDS011;69155;49.464;2.108;2023-11-21T11:31:33;1.97;;;1.63;;
79687;SDS011;69155;49.464;2.108;2023-11-21T11:34:19;2.75;;;1.90;;
79687;SDS011;69155;49.464;2.108;2023-11-21T11:36:48;1.52;;;1.42;;
79687;SDS011;69155;49.464;2.108;2023-11-21T11:39:27;2.10;;;1.35;;
79687;SDS011;69155;49.464;2.108;2023-11-21T11:41:53;1.40;;;1.08;;
79687;SDS011;69155;49.464;2.108;2023-11-21T11:47:02;2.03;;;1.42;;
79687;SDS011;69155;49.464;2.108;2023-11-21T11:49:27;1.60;;;1.50;;
79687;SDS011;69155;49.464;2.108;2023-11-21T11:52:31;2.47;;;1.42;;
79687;SDS011;69155;49.464;2.108;2023-11-21T11:54:56;3.30;;;1.70;;
79687;SDS011;69155;49.464;2.108;2023-11-21T11:57:26;1.50;;;1.40;;
79687;SDS011;69155;49.464;2.108;2023-11-21T12:00:36;3.78;;;1.40;;
79687;SDS011;69155;49.464;2.108;2023-11-21T12:03:06;1.95;;;1.27;;
79687;SDS011;69155;49.464;2.108;2023-11-21T12:05:32;2.03;;;1.20;;
79687;SDS011;69155;49.464;2.108;2023-11-21T12:08:01;3.88;;;1.30;;
79687;SDS011;69155;49.464;2.108;2023-11-21T12:10:28;2.20;;;1.10;;
79687;SDS011;69155;49.464;2.108;2023-11-21T12:12:57;1.00;;;1.00;;
79687;SDS011;69155;49.464;2.108;2023-11-21T12:15:26;2.35;;;1.52;;
79687;SDS011;69155;49.464;2.108;2023-11-21T12:17:54;1.60;;;1.25;;
79687;SDS011;69155;49.464;2.108;2023-11-21T12:20:20;3.43;;;1.40;;
79687;SDS011;69155;49.464;2.108;2023-11-21T12:22:48;2.35;;;1.20;;
79687;SDS011;69155;49.464;2.108;2023-11-21T12:25:16;2.95;;;1.30;;
79687;SDS011;69155;49.464;2.108;2023-11-21T12:27:44;3.10;;;1.50;;
79687;SDS011;69155;49.464;2.108;2023-11-21T12:30:13;3.67;;;1.30;;
79687;SDS011;69155;49.464;2.108;2023-11-21T12:32:40;1.73;;;1.30;;
79687;SDS011;69155;49.464;2.108;2023-11-21T12:35:09;0.90;;;0.88;;
79687;SDS011;69155;49.464;2.108;2023-11-21T12:37:35;1.85;;;1.20;;
79687;SDS011;69155;49.464;2.108;2023-11-21T12:40:01;2.38;;;1.23;;
79687;SDS011;69155;49.464;2.108;2023-11-21T12:42:27;6.07;;;1.60;;
79687;SDS011;69155;49.464;2.108;2023-11-21T12:47:43;1.48;;;1.38;;
79687;SDS011;69155;49.464;2.108;2023-11-21T12:50:09;1.60;;;1.25;;
79687;SDS011;69155;49.464;2.108;2023-11-21T12:52:42;1.38;;;1.27;;
79687;SDS011;69155;49.464;2.108;2023-11-21T12:55:21;3.25;;;1.30;;
79687;SDS011;69155;49.464;2.108;2023-11-21T12:57:50;4.55;;;1.88;;
79687;SDS011;69155;49.464;2.108;2023-11-21T13:00:32;4.20;;;1.60;;
79687;SDS011;69155;49.464;2.108;2023-11-21T13:02:59;5.20;;;1.60;;
79687;SDS011;69155;49.464;2.108;2023-11-21T13:05:30;1.38;;;1.27;;
79687;SDS011;69155;49.464;2.108;2023-11-21T13:07:57;1.80;;;1.33;;
79687;SDS011;69155;49.464;2.108;2023-11-21T13:10:26;2.53;;;1.60;;
79687;SDS011;69155;49.464;2.108;2023-11-21T13:12:55;3.70;;;1.85;;
79687;SDS011;69155;49.464;2.108;2023-11-21T13:15:23;2.10;;;1.40;;
79687;SDS011;69155;49.464;2.108;2023-11-21T13:17:50;3.58;;;1.52;;
79687;SDS011;69155;49.464;2.108;2023-11-21T13:20:16;5.88;;;1.70;;
79687;SDS011;69155;49.464;2.108;2023-11-21T13:22:47;2.83;;;1.45;;
79687;SDS011;69155;49.464;2.108;2023-11-21T13:25:17;2.13;;;1.40;;
79687;SDS011;69155;49.464;2.108;2023-11-21T13:27:43;4.07;;;1.48;;
79687;SDS011;69155;49.464;2.108;2023-11-21T13:30:09;7.65;;;1.63;;
79687;SDS011;69155;49.464;2.108;2023-11-21T13:32:35;1.60;;;1.30;;
79687;SDS011;69155;49.464;2.108;2023-11-21T13:35:01;2.70;;;1.42;;
79687;SDS011;69155;49.464;2.108;2023-11-21T13:37:26;4.88;;;1.40;;
79687;SDS011;69155;49.464;2.108;2023-11-21T13:40:03;2.22;;;1.33;;
79687;SDS011;69155;49.464;2.108;2023-11-21T13:42:41;4.10;;;1.52;;
79687;SDS011;69155;49.464;2.108;2023-11-21T13:45:11;3.92;;;1.73;;
79687;SDS011;69155;49.464;2.108;2023-11-21T13:47:37;2.08;;;1.00;;
79687;SDS011;69155;49.464;2.108;2023-11-21T13:50:03;1.33;;;1.10;;
79687;SDS011;69155;49.464;2.108;2023-11-21T13:52:29;4.95;;;1.48;;
79687;SDS011;69155;49.464;2.108;2023-11-21T13:54:58;2.33;;;1.50;;
79687;SDS011;69155;49.464;2.108;2023-11-21T13:57:26;5.45;;;1.50;;
79687;SDS011;69155;49.464;2.108;2023-11-21T13:59:54;2.42;;;1.13;;
79687;SDS011;69155;49.464;2.108;2023-11-21T14:02:24;2.45;;;1.38;;
79687;SDS011;69155;49.464;2.108;2023-11-21T14:04:59;4.75;;;1.20;;
79687;SDS011;69155;49.464;2.108;2023-11-21T14:07:26;3.10;;;1.40;;
79687;SDS011;69155;49.464;2.108;2023-11-21T14:10:03;2.08;;;1.23;;
79687;SDS011;69155;49.464;2.108;2023-11-21T14:12:31;3.05;;;1.40;;
79687;SDS011;69155;49.464;2.108;2023-11-21T14:15:00;3.20;;;1.50;;
79687;SDS011;69155;49.464;2.108;2023-11-21T14:17:28;2.55;;;1.85;;
79687;SDS011;69155;49.464;2.108;2023-11-21T14:19:57;6.25;;;2.17;;
79687;SDS011;69155;49.464;2.108;2023-11-21T14:22:25;5.43;;;1.77;;
79687;SDS011;69155;49.464;2.108;2023-11-21T14:24:51;3.15;;;1.77;;
79687;SDS011;69155;49.464;2.108;2023-11-21T14:27:17;4.32;;;1.70;;
79687;SDS011;69155;49.464;2.108;2023-11-21T14:29:49;5.95;;;1.83;;
79687;SDS011;69155;49.464;2.108;2023-11-21T14:32:17;3.78;;;1.77;;
79687;SDS011;69155;49.464;2.108;2023-11-21T14:34:43;3.28;;;1.40;;
79687;SDS011;69155;49.464;2.108;2023-11-21T14:37:11;1.70;;;1.45;;
79687;SDS011;69155;49.464;2.108;2023-11-21T14:39:39;1.65;;;1.55;;
79687;SDS011;69155;49.464;2.108;2023-11-21T14:42:11;3.05;;;1.50;;
79687;SDS011;69155;49.464;2.108;2023-11-21T14:44:36;1.38;;;1.27;;
79687;SDS011;69155;49.464;2.108;2023-11-21T14:47:06;2.97;;;1.05;;
79687;SDS011;69155;49.464;2.108;2023-11-21T14:49:40;1.30;;;1.20;;
79687;SDS011;69155;49.464;2.108;2023-11-21T14:52:17;0.93;;;0.93;;
79687;SDS011;69155;49.464;2.108;2023-11-21T14:55:12;3.63;;;1.38;;
79687;SDS011;69155;49.464;2.108;2023-11-21T14:57:56;2.28;;;1.27;;
79687;SDS011;69155;49.464;2.108;2023-11-21T15:00:21;4.78;;;2.03;;
79687;SDS011;69155;49.464;2.108;2023-11-21T15:02:59;2.20;;;1.30;;